Time;durP1;ratioP1;P1;durP2;ratioP2;P2;SDS_P1;SDS_P2;PMS_P1;PMS_P2;Temp;Humidity;BMP_temperature;BMP_pressure;BME280_temperature;BME280_humidity;BME280_pressure;Samples;Min_cycle;Max_cycle;Signal;HPM_P1;HPM_P2
2021/03/19 00:01:40;;;;;;;98.80;48.80;;;;;;;2.36;60.85;94819.66;5110474;28;20179;-66
2021/03/19 00:04:08;;;;;;;124.90;56.80;;;;;;;2.34;60.94;94803.56;5111345;28;20194;-68
2021/03/19 00:06:36;;;;;;;131.70;62.20;;;;;;;2.39;60.34;94819.25;5110049;28;20226;-66
2021/03/19 00:09:05;;;;;;;130.90;60.83;;;;;;;2.06;61.49;94810.88;5111167;28;20210;-65
2021/03/19 00:11:32;;;;;;;124.03;58.70;;;;;;;2.11;61.68;94826.53;5110293;28;20189;-65
2021/03/19 00:13:59;;;;;;;130.48;59.40;;;;;;;2.06;61.24;94821.19;5111246;28;20222;-65
2021/03/19 00:16:27;;;;;;;122.07;58.85;;;;;;;2.12;61.07;94814.44;5110376;28;20290;-65
2021/03/19 00:18:53;;;;;;;114.60;56.47;;;;;;;2.10;60.94;94809.44;5110773;28;20203;-65
2021/03/19 00:21:20;;;;;;;117.90;55.67;;;;;;;2.17;61.50;94819.75;5109833;28;20609;-65
2021/03/19 00:23:48;;;;;;;117.75;55.83;;;;;;;2.29;61.05;94812.94;5110921;28;20285;-65
2021/03/19 00:26:15;;;;;;;119.50;56.25;;;;;;;2.37;61.10;94804.97;5110310;28;20679;-66
2021/03/19 00:28:41;;;;;;;115.63;56.20;;;;;;;2.28;60.88;94801.03;5110829;28;20190;-66
2021/03/19 00:31:07;;;;;;;116.15;56.38;;;;;;;2.41;60.76;94817.25;5110039;28;20191;-66
2021/03/19 00:33:34;;;;;;;110.43;54.10;;;;;;;2.25;60.61;94807.38;5110514;28;20236;-66
2021/03/19 00:36:01;;;;;;;108.13;51.83;;;;;;;2.06;61.04;94808.28;5109996;28;20194;-65
2021/03/19 00:38:27;;;;;;;110.05;52.83;;;;;;;2.12;60.98;94817.78;5110977;28;20195;-66
2021/03/19 00:40:54;;;;;;;109.68;53.10;;;;;;;1.93;61.13;94821.25;5111966;28;20232;-65
2021/03/19 00:43:20;;;;;;;106.38;53.40;;;;;;;2.00;61.44;94825.41;5115134;28;20202;-65
2021/03/19 00:45:47;;;;;;;110.50;53.20;;;;;;;2.13;61.00;94821.97;5110811;28;20273;-64
2021/03/19 00:48:13;;;;;;;111.47;52.47;;;;;;;1.96;60.96;94802.75;5114363;28;20190;-65
2021/03/19 00:50:51;;;;;;;110.20;52.45;;;;;;;1.88;61.03;94774.56;5114179;28;20618;-65
2021/03/19 00:53:17;;;;;;;112.38;52.85;;;;;;;2.02;61.31;94801.94;5114580;28;20240;-66
2021/03/19 00:55:44;;;;;;;105.97;51.67;;;;;;;2.12;60.97;94801.50;5114311;28;20194;-65
2021/03/19 00:58:10;;;;;;;113.78;53.45;;;;;;;1.91;61.12;94811.13;5114551;28;20201;-65
2021/03/19 01:00:38;;;;;;;106.43;50.70;;;;;;;1.74;61.87;94820.31;5114204;28;20663;-64
2021/03/19 01:03:05;;;;;;;100.53;50.50;;;;;;;1.83;61.82;94810.53;5114306;28;20194;-65
2021/03/19 01:05:39;;;;;;;100.68;49.10;;;;;;;2.03;61.47;94809.47;5113694;28;20672;-65
2021/03/19 01:08:07;;;;;;;103.68;50.47;;;;;;;1.98;61.07;94808.50;5113865;28;20672;-64
2021/03/19 01:10:50;;;;;;;104.78;49.08;;;;;;;2.08;61.46;94806.25;5113935;28;20182;-65
2021/03/19 01:13:17;;;;;;;101.00;48.88;;;;;;;2.05;61.36;94807.47;5114424;28;20190;-65
2021/03/19 01:15:44;;;;;;;94.35;47.15;;;;;;;2.07;60.87;94804.69;5114063;28;20201;-65
2021/03/19 01:18:13;;;;;;;84.97;45.85;;;;;;;2.02;61.55;94801.94;5114318;28;20664;-66
2021/03/19 01:20:42;;;;;;;70.38;35.47;;;;;;;2.13;60.63;94806.47;5114079;28;20273;-64
2021/03/19 01:23:10;;;;;;;51.88;28.83;;;;;;;2.15;60.79;94786.38;5113802;28;20209;-65
2021/03/19 01:25:37;;;;;;;63.85;34.55;;;;;;;2.27;60.92;94789.09;5113339;28;20206;-65
2021/03/19 01:28:04;;;;;;;74.47;38.33;;;;;;;2.19;60.83;94795.28;5113920;28;20663;-65
2021/03/19 01:30:34;;;;;;;64.97;33.97;;;;;;;2.21;60.81;94785.53;5113443;28;20695;-64
2021/03/19 01:33:01;;;;;;;55.08;31.42;;;;;;;2.22;60.54;94791.50;5112842;28;20257;-65
2021/03/19 01:35:31;;;;;;;59.15;32.95;;;;;;;2.26;60.88;94795.25;5113124;28;20201;-64
2021/03/19 01:37:59;;;;;;;64.05;33.58;;;;;;;2.35;60.67;94797.41;5113914;28;20182;-64
2021/03/19 01:40:30;;;;;;;60.28;34.20;;;;;;;2.18;61.33;94795.50;5113457;28;20620;-65
2021/03/19 01:43:17;;;;;;;55.38;31.52;;;;;;;2.14;61.53;94800.28;5113509;28;20214;-64
2021/03/19 01:46:20;;;;;;;60.65;33.30;;;;;;;2.23;61.17;94788.69;5113156;27;20202;-67
2021/03/19 01:49:25;;;;;;;56.92;30.25;;;;;;;2.15;60.96;94796.72;5113663;28;20672;-65
2021/03/19 01:52:29;;;;;;;50.05;28.58;;;;;;;2.15;60.96;94794.13;5113439;28;20208;-65
2021/03/19 01:55:33;;;;;;;51.63;29.20;;;;;;;2.33;61.21;94794.22;5113160;28;20218;-65
2021/03/19 01:58:37;;;;;;;55.10;30.95;;;;;;;2.42;60.76;94787.81;5112166;28;20619;-66
2021/03/19 02:01:40;;;;;;;57.67;31.48;;;;;;;2.29;60.86;94782.72;5112790;28;20198;-67
2021/03/19 02:04:45;;;;;;;62.40;34.90;;;;;;;2.36;60.47;94780.88;5112811;28;20182;-65
2021/03/19 02:07:49;;;;;;;73.13;37.38;;;;;;;2.36;60.64;94793.81;5113080;28;20297;-65
2021/03/19 02:10:52;;;;;;;68.93;36.17;;;;;;;2.41;60.73;94778.47;5114972;28;20182;-65
2021/03/19 02:13:56;;;;;;;78.25;39.13;;;;;;;2.41;60.66;94791.38;5114193;28;20243;-66
2021/03/19 02:17:00;;;;;;;70.80;38.17;;;;;;;2.24;60.65;94786.91;5112586;28;20229;-64
2021/03/19 02:20:05;;;;;;;74.90;38.20;;;;;;;2.29;60.83;94772.38;5113019;28;20201;-65
2021/03/19 02:23:08;;;;;;;73.95;38.20;;;;;;;2.22;61.33;94779.38;5113624;28;20190;-66
2021/03/19 02:26:13;;;;;;;76.45;39.47;;;;;;;2.38;61.06;94776.31;5112289;28;20190;-67
2021/03/19 02:29:17;;;;;;;76.07;39.58;;;;;;;2.25;61.15;94786.72;5089205;28;20194;-65
2021/03/19 02:31:54;;;;;;;74.70;38.63;;;;;;;2.36;60.84;94783.47;5112284;28;20277;-65
2021/03/19 02:34:32;;;;;;;71.75;37.95;;;;;;;2.29;61.00;94782.72;5112467;28;20218;-64
2021/03/19 02:36:59;;;;;;;68.60;36.22;;;;;;;2.45;60.82;94782.22;5112861;28;20278;-66
2021/03/19 02:39:26;;;;;;;64.78;36.83;;;;;;;2.42;60.33;94779.25;5112772;28;20273;-64
2021/03/19 02:41:54;;;;;;;66.45;37.42;;;;;;;2.45;59.97;94786.59;5112640;28;20255;-64
2021/03/19 02:44:20;;;;;;;68.10;38.88;;;;;;;2.46;60.04;94783.81;5111108;28;20241;-65
2021/03/19 02:46:47;;;;;;;67.10;38.13;;;;;;;2.32;60.25;94771.94;5111812;28;20255;-64
2021/03/19 02:49:14;;;;;;;63.78;37.17;;;;;;;2.44;60.37;94780.66;5112285;28;20289;-65
2021/03/19 02:51:40;;;;;;;61.17;37.05;;;;;;;2.51;59.70;94772.84;5112180;28;20190;-64
2021/03/19 02:54:06;;;;;;;63.00;36.55;;;;;;;2.49;60.18;94778.22;5112000;28;20733;-66
2021/03/19 02:56:33;;;;;;;63.15;36.00;;;;;;;2.41;60.18;94770.69;5111848;28;20240;-65
2021/03/19 02:58:59;;;;;;;61.55;35.58;;;;;;;2.28;60.77;94781.13;5112121;28;20194;-66
2021/03/19 03:01:26;;;;;;;67.43;38.15;;;;;;;2.39;60.48;94772.69;5111412;28;20222;-65
2021/03/19 03:03:53;;;;;;;69.38;37.78;;;;;;;2.35;59.88;94763.81;5112507;28;20204;-64
2021/03/19 03:06:20;;;;;;;62.65;37.42;;;;;;;2.45;60.21;94771.88;5111351;28;20319;-64
2021/03/19 03:08:47;;;;;;;61.55;35.90;;;;;;;2.29;60.16;94751.69;5110121;28;20293;-64
2021/03/19 03:11:14;;;;;;;70.88;38.67;;;;;;;2.43;60.25;94779.03;5111843;28;20199;-65
2021/03/19 03:13:41;;;;;;;70.63;38.58;;;;;;;2.18;61.10;94779.97;5111829;28;20214;-64
2021/03/19 03:16:07;;;;;;;65.88;37.78;;;;;;;2.12;61.23;94771.25;5111120;28;20640;-66
2021/03/19 03:18:34;;;;;;;70.72;39.90;;;;;;;2.09;61.17;94771.69;5112153;28;20197;-66
2021/03/19 03:21:01;;;;;;;73.50;40.60;;;;;;;2.16;61.12;94772.44;5111565;28;20647;-65
2021/03/19 03:23:28;;;;;;;71.13;39.80;;;;;;;2.31;60.73;94772.16;5111662;28;20289;-66
2021/03/19 03:25:56;;;;;;;69.60;39.53;;;;;;;2.16;61.41;94775.03;5111145;28;20231;-65
2021/03/19 03:28:25;;;;;;;76.90;40.90;;;;;;;2.11;61.63;94769.69;5111746;28;20316;-66
2021/03/19 03:30:55;;;;;;;74.72;41.28;;;;;;;2.04;61.87;94776.69;5111472;28;20181;-64
2021/03/19 03:33:23;;;;;;;79.50;40.10;;;;;;;2.12;60.99;94779.00;5111344;28;20269;-65
2021/03/19 03:35:49;;;;;;;83.20;42.75;;;;;;;2.12;61.27;94771.25;5110567;28;20199;-65
2021/03/19 03:38:23;;;;;;;77.05;40.75;;;;;;;2.11;61.31;94772.28;5111290;27;20214;-65
2021/03/19 03:40:52;;;;;;;76.57;40.60;;;;;;;1.98;62.04;94767.97;5117610;28;20214;-65
2021/03/19 03:43:20;;;;;;;77.32;40.70;;;;;;;2.05;61.33;94765.34;5112535;28;20799;-66
2021/03/19 03:45:47;;;;;;;76.32;40.38;;;;;;;2.02;61.65;94773.50;5110910;28;20198;-65
2021/03/19 03:48:18;;;;;;;77.15;40.88;;;;;;;1.96;62.04;94769.16;5111010;28;20194;-66
2021/03/19 03:50:45;;;;;;;76.28;42.08;;;;;;;1.96;61.62;94776.91;5110946;28;20273;-66
2021/03/19 03:53:13;;;;;;;72.85;41.10;;;;;;;1.99;61.71;94771.31;5111260;28;20178;-65
2021/03/19 03:55:42;;;;;;;72.70;40.22;;;;;;;2.05;61.44;94770.50;5110763;28;20191;-65
2021/03/19 03:58:10;;;;;;;70.15;41.53;;;;;;;1.86;62.00;94779.91;5111229;28;20658;-66
2021/03/19 04:00:37;;;;;;;69.63;39.40;;;;;;;2.01;61.43;94774.50;5109584;28;20312;-64
2021/03/19 04:03:07;;;;;;;72.75;41.15;;;;;;;2.09;61.70;94782.03;5111171;28;20198;-66
2021/03/19 04:05:37;;;;;;;74.35;41.42;;;;;;;2.06;61.58;94774.69;5110935;28;20281;-66
2021/03/19 04:08:06;;;;;;;74.72;40.88;;;;;;;2.11;61.82;94780.03;5110957;28;20305;-66
2021/03/19 04:10:33;;;;;;;72.55;41.35;;;;;;;2.00;62.20;94772.91;5110674;28;20256;-66
2021/03/19 04:12:59;;;;;;;72.00;41.22;;;;;;;2.01;61.97;94780.47;5110656;28;20201;-65
2021/03/19 04:15:27;;;;;;;73.07;41.63;;;;;;;2.12;61.94;94786.00;5110600;28;20217;-66
2021/03/19 04:17:56;;;;;;;73.07;41.47;;;;;;;1.97;61.81;94779.28;5110857;28;20190;-66
2021/03/19 04:20:24;;;;;;;71.82;40.95;;;;;;;2.02;61.86;94787.22;5109550;28;20187;-66
2021/03/19 04:22:50;;;;;;;72.55;40.63;;;;;;;2.05;61.49;94786.00;5109251;28;20584;-66
2021/03/19 04:25:17;;;;;;;71.60;41.05;;;;;;;2.13;61.60;94790.94;5110995;28;20198;-65
2021/03/19 04:27:47;;;;;;;72.57;40.10;;;;;;;2.17;61.07;94789.56;5110690;28;20262;-66
2021/03/19 04:30:23;;;;;;;76.50;41.50;;;;;;;2.09;61.90;94792.34;5110115;28;20222;-65
2021/03/19 04:32:52;;;;;;;75.00;42.05;;;;;;;2.16;61.79;94787.94;5110477;28;20193;-65
2021/03/19 04:35:22;;;;;;;81.35;42.42;;;;;;;2.11;61.89;94794.72;5110279;28;20218;-65
2021/03/19 04:37:50;;;;;;;76.28;43.15;;;;;;;1.81;61.63;94753.91;5110468;28;20251;-66
2021/03/19 04:40:18;;;;;;;78.18;44.30;;;;;;;2.07;61.99;94799.50;5109709;28;20218;-65
2021/03/19 04:42:46;;;;;;;84.78;45.03;;;;;;;1.96;61.67;94797.56;5110616;28;20223;-67
2021/03/19 04:45:13;;;;;;;84.38;45.70;;;;;;;1.83;62.02;94808.75;5110299;28;20201;-66
2021/03/19 04:47:40;;;;;;;82.25;44.97;;;;;;;1.81;62.23;94813.31;5110476;28;20198;-66
2021/03/19 04:50:09;;;;;;;81.20;45.40;;;;;;;1.86;62.02;94802.41;5108820;28;20202;-65
2021/03/19 04:52:35;;;;;;;85.00;46.40;;;;;;;2.01;61.36;94801.13;5110519;28;20198;-66
2021/03/19 04:55:03;;;;;;;76.07;44.83;;;;;;;1.88;61.84;94798.59;5106332;28;20221;-66
2021/03/19 04:57:30;;;;;;;82.47;45.95;;;;;;;1.86;62.34;94797.22;5110581;28;20195;-66
2021/03/19 04:59:58;;;;;;;77.93;45.38;;;;;;;1.95;61.85;94785.66;5110543;28;20183;-66
2021/03/19 05:02:45;;;;;;;80.93;45.50;;;;;;;1.92;61.77;94796.38;5110223;28;20281;-67
2021/03/19 05:05:18;;;;;;;81.90;46.10;;;;;;;1.94;62.46;94804.72;5110523;28;20236;-67
2021/03/19 05:07:45;;;;;;;77.57;44.67;;;;;;;1.93;62.26;94795.41;5110568;28;20249;-67
2021/03/19 05:10:13;;;;;;;78.18;45.10;;;;;;;2.06;62.41;94803.88;5114280;28;20213;-65
2021/03/19 05:12:40;;;;;;;85.22;46.65;;;;;;;1.62;62.80;94805.63;5110280;28;20194;-66
2021/03/19 05:15:08;;;;;;;83.20;46.35;;;;;;;1.81;63.04;94813.31;5110094;28;20666;-67
2021/03/19 05:17:35;;;;;;;87.88;46.05;;;;;;;2.04;62.37;94808.47;5110147;28;20290;-65
2021/03/19 05:20:05;;;;;;;80.75;45.80;;;;;;;2.16;61.64;94813.78;5110313;28;20694;-69
2021/03/19 05:22:31;;;;;;;79.65;44.67;;;;;;;2.22;61.34;94807.00;5110171;28;20191;-66
2021/03/19 05:24:58;;;;;;;74.20;43.20;;;;;;;2.32;61.32;94812.53;5109020;28;20198;-66
2021/03/19 05:27:25;;;;;;;79.93;44.13;;;;;;;2.28;61.62;94812.13;5109690;28;20260;-65
2021/03/19 05:29:55;;;;;;;71.15;41.42;;;;;;;2.12;61.71;94807.44;5109094;28;20540;-66
2021/03/19 05:32:24;;;;;;;75.28;41.35;;;;;;;2.31;61.19;94806.56;5112242;28;20191;-67
2021/03/19 05:34:51;;;;;;;81.53;44.47;;;;;;;2.20;61.42;94820.16;5113143;28;20212;-65
2021/03/19 05:37:18;;;;;;;76.18;44.50;;;;;;;2.24;61.47;94816.16;5113207;28;20747;-66
2021/03/19 05:39:45;;;;;;;75.63;43.90;;;;;;;2.26;60.98;94824.50;5113389;28;20216;-67
2021/03/19 05:42:24;;;;;;;71.97;41.47;;;;;;;2.33;61.89;94825.25;5113965;28;20206;-65
2021/03/19 05:44:58;;;;;;;93.45;52.15;;;;;;;2.30;62.08;94836.00;5113805;28;20218;-65
2021/03/19 05:47:25;;;;;;;94.25;51.17;;;;;;;2.18;61.99;94837.66;5114015;28;20280;-64
2021/03/19 05:49:57;;;;;;;181.73;111.45;;;;;;;2.23;62.57;94832.66;5113603;28;20190;-67
2021/03/19 05:52:28;;;;;;;82.63;47.92;;;;;;;2.24;62.74;94841.19;5113733;28;20243;-67
2021/03/19 05:54:55;;;;;;;73.05;43.22;;;;;;;2.10;62.81;94830.09;5111879;28;20290;-65
2021/03/19 05:57:33;;;;;;;76.75;43.95;;;;;;;2.26;62.09;94839.22;5113682;28;20589;-66
2021/03/19 06:00:01;;;;;;;72.28;43.40;;;;;;;2.35;62.40;94841.38;5113427;28;20213;-66
2021/03/19 06:02:38;;;;;;;81.03;44.85;;;;;;;2.40;61.72;94841.53;5113422;28;20206;-65
2021/03/19 06:05:12;;;;;;;73.78;42.35;;;;;;;2.42;61.40;94849.06;5113241;28;20191;-64
2021/03/19 06:07:42;;;;;;;74.45;42.83;;;;;;;2.51;61.99;94848.63;5113044;28;20311;-64
2021/03/19 06:10:15;;;;;;;71.63;43.08;;;;;;;2.40;61.60;94851.06;5113036;28;20197;-65
2021/03/19 06:12:42;;;;;;;74.10;43.95;;;;;;;2.52;61.67;94850.22;5113478;28;20587;-67
2021/03/19 06:15:22;;;;;;;72.32;41.88;;;;;;;2.60;61.82;94851.75;5113049;28;20202;-65
2021/03/19 06:17:49;;;;;;;71.03;42.28;;;;;;;2.60;61.56;94852.56;5113177;27;20672;-68
2021/03/19 06:20:19;;;;;;;73.88;41.58;;;;;;;2.70;61.42;94855.47;5113315;28;20695;-67
2021/03/19 06:22:47;;;;;;;68.05;40.58;;;;;;;2.75;61.64;94855.69;5113023;27;20583;-66
2021/03/19 06:25:24;;;;;;;68.63;40.85;;;;;;;2.80;61.08;94848.06;5111370;28;20202;-64
2021/03/19 06:27:54;;;;;;;64.47;38.45;;;;;;;2.91;60.83;94849.19;5112857;28;20623;-65
2021/03/19 06:30:37;;;;;;;66.93;36.72;;;;;;;2.89;60.63;94849.41;5113458;27;20194;-65
2021/03/19 06:33:12;;;;;;;58.83;35.60;;;;;;;2.92;60.73;94854.16;5110839;28;20271;-65
2021/03/19 06:35:47;;;;;;;53.90;34.22;;;;;;;2.89;60.61;94864.13;5111863;28;20224;-65
2021/03/19 06:38:34;;;;;;;52.58;32.95;;;;;;;3.02;60.52;94858.88;5116960;28;20569;-64
2021/03/19 06:41:46;;;;;;;57.70;33.33;;;;;;;3.18;60.12;94865.31;5112544;28;20198;-64
2021/03/19 06:44:21;;;;;;;56.78;34.45;;;;;;;3.16;59.39;94867.34;5112019;28;20194;-64
2021/03/19 06:46:59;;;;;;;59.95;35.00;;;;;;;3.15;60.01;94865.75;5112507;28;20193;-64
2021/03/19 06:49:28;;;;;;;68.53;40.05;;;;;;;3.30;59.75;94868.84;5112841;28;20248;-65
2021/03/19 06:52:23;;;;;;;80.57;44.55;;;;;;;3.29;59.95;94860.28;5114551;28;20258;-65
2021/03/19 06:54:55;;;;;;;88.72;48.78;;;;;;;3.27;59.74;94869.25;5114279;28;20783;-64
2021/03/19 06:57:24;;;;;;;65.00;38.63;;;;;;;3.50;59.12;94864.28;5114979;28;20225;-64
2021/03/19 06:59:57;;;;;;;76.00;44.80;;;;;;;3.66;58.86;94868.94;5112456;28;20201;-65
2021/03/19 07:02:58;;;;;;;68.20;39.25;;;;;;;3.77;58.42;94870.81;5112154;28;20190;-65
2021/03/19 07:05:45;;;;;;;75.03;43.95;;;;;;;3.61;59.19;94871.38;5111834;28;20194;-64
2021/03/19 07:08:40;;;;;;;77.03;42.10;;;;;;;3.64;58.23;94863.16;5112676;28;20640;-65
2021/03/19 07:11:26;;;;;;;65.38;38.50;;;;;;;3.63;57.97;94869.38;5111755;28;20210;-64
2021/03/19 07:13:55;;;;;;;67.13;40.60;;;;;;;3.93;57.38;94870.25;5111770;28;20586;-64
2021/03/19 07:16:45;;;;;;;76.72;42.83;;;;;;;3.97;58.56;94868.81;5111970;28;20209;-65
2021/03/19 07:19:45;;;;;;;72.93;44.05;;;;;;;4.23;57.35;94860.78;5110596;28;20669;-64
2021/03/19 07:22:49;;;;;;;65.20;39.35;;;;;;;4.22;56.64;94853.19;5111640;27;20198;-65
2021/03/19 07:25:45;;;;;;;45.85;29.05;;;;;;;4.08;56.42;94868.13;5059852;28;20209;-64
2021/03/19 07:28:53;;;;;;;47.45;28.17;;;;;;;4.59;55.98;94867.72;5111846;28;20628;-64
2021/03/19 07:31:41;;;;;;;60.97;35.58;;;;;;;4.75;55.79;94862.72;5061110;28;20671;-66
2021/03/19 07:34:22;;;;;;;36.92;24.75;;;;;;;4.91;55.07;94854.31;5111277;28;20202;-65
2021/03/19 07:37:10;;;;;;;44.75;24.67;;;;;;;4.75;53.80;94854.94;5111629;28;20198;-64
2021/03/19 07:39:54;;;;;;;35.17;22.48;;;;;;;4.90;51.95;94852.72;5111388;28;20198;-65
2021/03/19 07:42:57;;;;;;;34.58;22.20;;;;;;;5.04;51.50;94861.91;5110967;28;20624;-65
2021/03/19 07:45:34;;;;;;;37.22;20.95;;;;;;;5.08;51.44;94855.25;5111086;28;20190;-65
2021/03/19 07:48:13;;;;;;;32.85;20.50;;;;;;;5.05;51.13;94854.91;5111391;28;20188;-64
2021/03/19 07:50:42;;;;;;;34.53;20.25;;;;;;;5.12;49.86;94850.41;5110899;28;20178;-63
2021/03/19 07:53:23;;;;;;;31.58;19.25;;;;;;;5.00;49.42;94852.16;5109766;28;20201;-65
2021/03/19 07:56:10;;;;;;;23.52;16.15;;;;;;;4.60;48.77;94848.56;5110996;28;20309;-63
2021/03/19 07:58:39;;;;;;;25.05;16.00;;;;;;;4.86;50.84;94856.78;5111185;28;20293;-64
2021/03/19 08:01:17;;;;;;;24.65;15.23;;;;;;;4.86;47.62;94841.19;5110792;27;20202;-63
2021/03/19 08:03:48;;;;;;;25.83;17.40;;;;;;;5.09;50.21;94836.06;5110875;28;20190;-64
2021/03/19 08:06:23;;;;;;;24.92;14.25;;;;;;;5.18;46.60;94840.94;5111170;28;20718;-63
2021/03/19 08:09:05;;;;;;;19.90;14.13;;;;;;;5.16;47.58;94839.34;5112732;28;20620;-64
2021/03/19 08:11:42;;;;;;;22.95;15.73;;;;;;;5.42;47.20;94851.13;5110277;28;20198;-65
2021/03/19 08:14:36;;;;;;;26.83;16.13;;;;;;;5.60;48.42;94853.63;5110824;28;20219;-65
2021/03/19 08:17:22;;;;;;;25.73;16.77;;;;;;;5.88;47.61;94855.59;5110954;28;20237;-64
2021/03/19 08:20:15;;;;;;;25.80;17.08;;;;;;;5.56;46.73;94856.91;5110338;28;20216;-63
2021/03/19 08:22:49;;;;;;;20.40;14.10;;;;;;;5.10;46.03;94850.63;5110664;28;20740;-64
2021/03/19 08:25:20;;;;;;;25.23;14.63;;;;;;;4.64;47.04;94858.25;5110333;28;20198;-63
2021/03/19 08:28:26;;;;;;;22.25;14.73;;;;;;;4.86;48.94;94846.38;5110893;28;20194;-63
2021/03/19 08:31:23;;;;;;;25.50;13.75;;;;;;;4.87;47.88;94842.78;5079326;28;20206;-64
2021/03/19 08:34:15;;;;;;;19.15;12.60;;;;;;;5.23;46.47;94851.44;5110489;28;20397;-64
2021/03/19 08:36:50;;;;;;;21.33;13.07;;;;;;;5.50;46.36;94844.81;5110734;28;20194;-64
2021/03/19 08:39:22;;;;;;;20.90;13.35;;;;;;;5.74;46.87;94838.63;5110478;28;20197;-64
2021/03/19 08:41:53;;;;;;;19.65;13.90;;;;;;;5.89;46.36;94831.97;5110490;28;20579;-64
2021/03/19 08:44:26;;;;;;;19.90;14.63;;;;;;;5.59;46.11;94838.28;5110629;28;20198;-63
2021/03/19 08:47:01;;;;;;;18.10;13.27;;;;;;;5.59;46.08;94831.28;5110483;28;20205;-64
2021/03/19 08:49:45;;;;;;;19.75;13.48;;;;;;;5.65;45.90;94829.56;5109812;28;20198;-63
2021/03/19 08:52:37;;;;;;;25.67;14.10;;;;;;;5.98;46.51;94833.22;5111089;28;20289;-64
2021/03/19 08:55:13;;;;;;;20.15;12.05;;;;;;;6.29;45.37;94826.81;5110028;28;20234;-63
2021/03/19 08:57:45;;;;;;;14.32;10.88;;;;;;;6.55;44.28;94826.28;5110830;28;20691;-65
2021/03/19 09:00:20;;;;;;;14.40;11.00;;;;;;;5.85;42.93;94835.25;5109974;28;20206;-63
2021/03/19 09:03:05;;;;;;;15.05;10.35;;;;;;;5.35;44.12;94845.25;5110635;28;20261;-64
2021/03/19 09:05:57;;;;;;;14.27;9.88;;;;;;;5.79;43.21;94836.13;5110125;28;20221;-63
2021/03/19 09:08:44;;;;;;;13.77;9.95;;;;;;;6.38;43.10;94825.44;5114193;28;20690;-65
2021/03/19 09:11:19;;;;;;;14.35;10.70;;;;;;;6.97;43.66;94819.75;5113920;28;20222;-64
2021/03/19 09:14:04;;;;;;;17.70;11.85;;;;;;;7.35;43.04;94820.91;5114621;28;20199;-65
2021/03/19 09:16:40;;;;;;;17.15;12.38;;;;;;;7.41;42.82;94812.91;5113961;28;20194;-63
2021/03/19 09:19:32;;;;;;;16.52;11.43;;;;;;;7.40;40.89;94813.16;5114417;28;20601;-64
2021/03/19 09:22:20;;;;;;;15.60;10.88;;;;;;;7.00;41.91;94813.28;5114221;28;20277;-65
2021/03/19 09:25:09;;;;;;;15.82;11.73;;;;;;;6.89;43.88;94814.94;5113740;27;20859;-65
2021/03/19 09:27:39;;;;;;;16.00;11.02;;;;;;;7.09;41.83;94806.66;5114165;28;20186;-64
2021/03/19 09:30:14;;;;;;;17.63;11.55;;;;;;;7.85;42.01;94800.78;5113581;27;20652;-63
2021/03/19 09:32:48;;;;;;;17.83;13.07;;;;;;;7.86;40.76;94810.19;5114041;28;20770;-63
2021/03/19 09:35:44;;;;;;;15.35;12.20;;;;;;;7.05;42.19;94806.34;5114651;28;20242;-64
2021/03/19 09:38:22;;;;;;;16.50;11.73;;;;;;;7.54;41.05;94814.41;5110222;28;20297;-65
2021/03/19 09:40:59;;;;;;;18.17;13.30;;;;;;;8.19;41.97;94807.50;5113131;28;20282;-65
2021/03/19 09:43:38;;;;;;;19.30;12.75;;;;;;;8.88;41.01;94803.34;5114048;27;20186;-64
2021/03/19 09:46:22;;;;;;;17.75;12.57;;;;;;;8.44;40.08;94804.44;5113724;28;20675;-64
2021/03/19 09:49:00;;;;;;;16.05;11.70;;;;;;;7.11;41.20;94805.41;5112631;28;20252;-64
2021/03/19 09:51:42;;;;;;;18.65;13.05;;;;;;;8.02;40.38;94811.97;5113519;28;20202;-64
2021/03/19 09:54:16;;;;;;;18.92;13.75;;;;;;;8.83;41.66;94805.91;5113180;28;20209;-65
2021/03/19 09:56:47;;;;;;;19.77;13.68;;;;;;;9.08;39.97;94806.16;5113105;28;20289;-65
2021/03/19 09:59:30;;;;;;;19.38;13.43;;;;;;;8.85;38.79;94803.84;5113554;27;20204;-66
2021/03/19 10:01:57;;;;;;;17.63;12.73;;;;;;;8.75;38.81;94809.75;5113583;28;20198;-64
2021/03/19 10:04:27;;;;;;;14.90;11.75;;;;;;;9.10;38.61;94804.84;5113448;28;20198;-63
2021/03/19 10:06:54;;;;;;;16.02;12.00;;;;;;;9.31;38.47;94802.41;5113397;28;20231;-64
2021/03/19 10:09:24;;;;;;;19.52;13.73;;;;;;;9.31;38.41;94797.19;5113534;28;20209;-64
2021/03/19 10:11:53;;;;;;;15.17;12.10;;;;;;;9.63;37.04;94797.97;5111658;28;20205;-64
2021/03/19 10:14:25;;;;;;;18.00;12.37;;;;;;;9.65;37.62;94801.13;5113226;28;20464;-65
2021/03/19 10:17:03;;;;;;;17.77;12.57;;;;;;;10.05;38.29;94790.91;5113199;28;20444;-65
2021/03/19 10:19:35;;;;;;;19.03;12.80;;;;;;;10.53;37.22;94793.22;5111876;28;20550;-65
2021/03/19 10:22:04;;;;;;;19.47;11.57;;;;;;;10.31;35.96;94799.69;5111733;28;20969;-64
2021/03/19 10:24:30;;;;;;;13.70;10.33;;;;;;;10.52;35.59;94793.47;5112491;28;21003;-64
2021/03/19 10:27:13;;;;;;;15.77;11.43;;;;;;;10.06;34.90;94795.06;5111538;28;20902;-64
2021/03/19 10:29:43;;;;;;;14.20;11.40;;;;;;;10.01;35.76;94800.28;5111898;28;20535;-65
2021/03/19 10:32:14;;;;;;;17.37;11.47;;;;;;;9.59;36.27;94796.88;5112902;28;20432;-64
2021/03/19 10:34:49;;;;;;;16.47;11.57;;;;;;;10.09;37.27;94797.22;5112396;28;20468;-65
2021/03/19 10:37:24;;;;;;;17.90;11.87;;;;;;;10.61;37.66;94790.09;5113029;28;21106;-66
2021/03/19 10:39:58;;;;;;;16.57;11.43;;;;;;;10.90;35.85;94787.81;5112468;28;20501;-64
2021/03/19 10:42:24;;;;;;;17.77;11.63;;;;;;;10.49;36.97;94789.53;5113394;28;20448;-65
2021/03/19 10:45:09;;;;;;;14.20;9.73;;;;;;;10.07;35.02;94788.81;5111860;28;20522;-65
2021/03/19 10:47:37;;;;;;;12.07;10.00;;;;;;;9.93;34.95;94785.06;5112832;28;20521;-64
2021/03/19 10:50:08;;;;;;;11.73;9.27;;;;;;;9.85;34.13;94790.78;5112054;28;20556;-65
2021/03/19 10:52:39;;;;;;;15.53;9.53;;;;;;;9.85;34.60;94775.84;5113094;28;20447;-64
2021/03/19 10:55:14;;;;;;;12.17;9.30;;;;;;;9.26;34.04;94782.25;5111802;28;20555;-65
2021/03/19 10:57:41;;;;;;;13.57;9.75;;;;;;;8.98;34.66;94780.69;5112399;28;20973;-64
2021/03/19 11:00:41;;;;;;;14.67;10.30;;;;;;;9.67;35.26;94773.66;5111230;28;20182;-63
2021/03/19 11:03:23;;;;;;;76.50;41.78;;;;;;;9.70;34.51;94757.47;5112152;28;20451;-64
2021/03/19 11:05:59;;;;;;;9.40;7.30;;;;;;;9.56;33.35;94766.00;5111893;28;20206;-64
2021/03/19 11:08:26;;;;;;;10.57;8.30;;;;;;;10.02;35.50;94759.97;5114553;28;20440;-66
2021/03/19 11:10:53;;;;;;;9.50;7.53;;;;;;;10.40;32.48;94772.72;5111954;28;20466;-66
2021/03/19 11:13:29;;;;;;;12.00;9.20;;;;;;;10.88;32.22;94763.69;5111926;28;20464;-66
2021/03/19 11:16:02;;;;;;;12.80;8.93;;;;;;;11.10;32.48;94757.16;5111825;28;21108;-64
2021/03/19 11:18:38;;;;;;;10.90;9.07;;;;;;;10.87;32.63;94757.69;5111913;28;20472;-65
2021/03/19 11:21:05;;;;;;;13.07;9.07;;;;;;;9.69;33.50;94765.56;5111558;28;20428;-65
2021/03/19 11:24:01;;;;;;;10.20;8.43;;;;;;;10.36;32.52;94753.34;5111992;28;20503;-66
2021/03/19 11:26:32;;;;;;;12.03;8.00;;;;;;;10.42;31.58;94757.53;5111122;28;20440;-64
2021/03/19 11:29:09;;;;;;;11.90;8.83;;;;;;;10.71;32.22;94742.94;5111439;28;20427;-65
2021/03/19 11:32:01;;;;;;;12.83;9.47;;;;;;;10.93;32.58;94751.38;5111108;28;20939;-65
2021/03/19 11:34:47;;;;;;;9.23;7.87;;;;;;;11.47;32.60;94740.38;5111274;28;20838;-66
2021/03/19 11:37:20;;;;;;;9.60;8.53;;;;;;;11.02;31.94;94751.66;5111697;28;20996;-64
2021/03/19 11:40:08;;;;;;;14.97;8.00;;;;;;;10.61;32.77;94755.25;5111608;28;20542;-63
2021/03/19 11:42:34;;;;;;;13.07;9.00;;;;;;;10.29;31.88;94755.44;5111401;28;20435;-65
2021/03/19 11:45:07;;;;;;;13.00;9.33;;;;;;;10.18;32.51;94757.19;5110782;28;20416;-63
2021/03/19 11:47:36;;;;;;;8.87;7.70;;;;;;;10.28;33.50;94755.66;5111747;28;20452;-65
2021/03/19 11:50:22;;;;;;;11.97;7.87;;;;;;;10.21;32.33;94753.28;5111140;28;20446;-65
2021/03/19 11:52:52;;;;;;;13.97;8.53;;;;;;;10.10;32.68;94756.91;5110923;28;20439;-65
2021/03/19 11:55:22;;;;;;;9.73;7.20;;;;;;;9.74;31.60;94762.97;5110625;28;20885;-65
2021/03/19 11:57:50;;;;;;;9.00;6.87;;;;;;;9.97;32.53;94741.63;5111614;28;20443;-63
2021/03/19 12:00:19;;;;;;;12.60;7.30;;;;;;;10.17;32.15;94747.00;5110700;28;20445;-64
2021/03/19 12:02:48;;;;;;;11.03;7.83;;;;;;;10.05;31.74;94739.31;5111408;28;20997;-63